# -----------------------------------------------------
# Source Files Information
# Index	Filename
# -----------------------------------------------------
# Field	Definitions
#  0	Sample File ID (see above)
#  1	Sample Position X
#  2	Sample Position Y
#  3	Sample Position Z
#  4	Sample Value (Amplitude)
#  5	Sample Time 
#  6	Sample Range 
#  7	Ship Position X
#  8	Ship Position Y
#  9	Ship Heading (degs)
# 10	Ship Pitch (degs)
# 11	Ship Roll (degs)
# 12	Transducer Depth (m)
# 13	Sound Speed (m/s)
# 14	Ping Number X
# 15	Ping Time X
# 16	Sample Number X
# 17	Beam Number X
# 18	Beam Azimuth X
# 19	Beam Elevation X
#0           1           2        3        4       5      6           7           8      9     10     11     12      13    14             15   16  17     18     19
 0   546573.00  5261974.50    -0.01  -127.00  0.0001   0.05   546573.15  5261974.24 209.27   0.00   0.00   0.00  1476.3 00000  1372936016.60    0   1   0.00  74.05
 0   546573.06  5261974.50    -0.03  -115.00  0.0001   0.10   546573.15  5261974.24 209.27   0.00   0.00   0.00  1476.3 00000  1372936016.60    1   1   0.00  74.05
 0   546573.13  5261974.50    -0.04  -104.00  0.0002   0.14   546573.15  5261974.24 209.27   0.00   0.00   0.00  1476.3 00000  1372936016.60    2   1   0.00  74.05
 0   546573.13  5261974.50    -0.05  -111.00  0.0003   0.19   546573.15  5261974.24 209.27   0.00   0.00   0.00  1476.3 00000  1372936016.60    3   1   0.00  74.05
 0   546573.19  5261974.50    -0.07   -93.00  0.0003   0.24   546573.15  5261974.24 209.27   0.00   0.00   0.00  1476.3 00000  1372936016.60    4   1   0.00  74.05
 0   546573.25  5261974.00    -0.08   -95.00  0.0004   0.29   546573.15  5261974.24 209.27   0.00   0.00   0.00  1476.3 00000  1372936016.60    5   1   0.00  74.05
 0   546573.25  5261974.00    -0.09   -91.00  0.0005   0.34   546573.15  5261974.24 209.27   0.00   0.00   0.00  1476.3 00000  1372936016.60    6   1   0.00  74.05
 0   546573.31  5261974.00    -0.11   -97.00  0.0005   0.39   546573.15  5261974.24 209.27   0.00   0.00   0.00  1476.3 00000  1372936016.60    7   1   0.00  74.05
 0   546573.38  5261974.00    -0.12   -90.00  0.0006   0.43   546573.15  5261974.24 209.27   0.00   0.00   0.00  1476.3 00000  1372936016.60    8   1   0.00  74.05
 0   546573.38  5261974.00    -0.13   -91.00  0.0007   0.48   546573.15  5261974.24 209.27   0.00   0.00   0.00  1476.3 00000  1372936016.60    9   1   0.00  74.05
 0   546573.44  5261974.00    -0.15   -95.00  0.0007   0.53   546573.15  5261974.24 209.27   0.00   0.00   0.00  1476.3 00000  1372936016.60   10   1   0.00  74.05
 0   546573.44  5261974.00    -0.16  -125.00  0.0008   0.58   546573.15  5261974.24 209.27   0.00   0.00   0.00  1476.3 00000  1372936016.60   11   1   0.00  74.05
 0   546573.50  5261974.00    -0.17  -112.00  0.0008   0.63   546573.15  5261974.24 209.27   0.00   0.00   0.00  1476.3 00000  1372936016.60   12   1   0.00  74.05
 0   546573.56  5261974.00    -0.19   -93.00  0.0009   0.67   546573.15  5261974.24 209.27   0.00   0.00   0.00  1476.3 00000  1372936016.60   13   1   0.00  74.05
 0   546573.56  5261974.00    -0.20  -100.00  0.0010   0.72   546573.15  5261974.24 209.27   0.00   0.00   0.00  1476.3 00000  1372936016.60   14   1   0.00  74.05
 0   546573.63  5261974.00    -0.21   -94.00  0.0010   0.77   546573.15  5261974.24 209.27   0.00   0.00   0.00  1476.3 00000  1372936016.60   15   1   0.00  74.05
 0   546573.69  5261974.00    -0.23   -89.00  0.0011   0.82   546573.15  5261974.24 209.27   0.00   0.00   0.00  1476.3 00000  1372936016.60   16   1   0.00  74.05
 0   546573.69  5261974.00    -0.24   -83.00  0.0012   0.87   546573.15  5261974.24 209.27   0.00   0.00   0.00  1476.3 00000  1372936016.60   17   1   0.00  74.05
 0   546573.75  5261974.00    -0.25   -89.00  0.0012   0.92   546573.15  5261974.24 209.27   0.00   0.00   0.00  1476.3 00000  1372936016.60   18   1   0.00  74.05
 0   546573.81  5261974.00    -0.26  -117.00  0.0013   0.96   546573.15  5261974.24 209.27   0.00   0.00   0.00  1476.3 00000  1372936016.60   19   1   0.00  74.05
 0   546573.81  5261974.00    -0.28  -124.00  0.0014   1.01   546573.15  5261974.24 209.27   0.00   0.00   0.00  1476.3 00000  1372936016.60   20   1   0.00  74.05
 0   546573.88  5261974.00    -0.29  -115.00  0.0014   1.06   546573.15  5261974.24 209.27   0.00   0.00   0.00  1476.3 00000  1372936016.60   21   1   0.00  74.05
 0   546573.94  5261974.00    -0.30  -121.00  0.0015   1.11   546573.15  5261974.24 209.27   0.00   0.00   0.00  1476.3 00000  1372936016.60   22   1   0.00  74.05
 0   546573.94  5261974.00    -0.32  -111.00  0.0016   1.16   546573.15  5261974.24 209.27   0.00   0.00   0.00  1476.3 00000  1372936016.60   23   1   0.00  74.05
 0   546574.00  5261974.00    -0.33  -114.00  0.0016   1.20   546573.15  5261974.24 209.27   0.00   0.00   0.00  1476.3 00000  1372936016.60   24   1   0.00  74.05
 0   546574.06  5261974.00    -0.34  -121.00  0.0017   1.25   546573.15  5261974.24 209.27   0.00   0.00   0.00  1476.3 00000  1372936016.60   25   1   0.00  74.05
 0   546574.06  5261974.00    -0.36  -105.00  0.0018   1.30   546573.15  5261974.24 209.27   0.00   0.00   0.00  1476.3 00000  1372936016.60   26   1   0.00  74.05
 0   546574.13  5261974.00    -0.37  -127.00  0.0018   1.35   546573.15  5261974.24 209.27   0.00   0.00   0.00  1476.3 00000  1372936016.60   27   1   0.00  74.05
 0   546574.19  5261973.50    -0.38  -105.00  0.0019   1.40   546573.15  5261974.24 209.27   0.00   0.00   0.00  1476.3 00000  1372936016.60   28   1   0.00  74.05
 0   546574.19  5261973.50    -0.40  -101.00  0.0020   1.45   546573.15  5261974.24 209.27   0.00   0.00   0.00  1476.3 00000  1372936016.60   29   1   0.00  74.05
 0   546574.25  5261973.50    -0.41  -111.00  0.0020   1.49   546573.15  5261974.24 209.27   0.00   0.00   0.00  1476.3 00000  1372936016.60   30   1   0.00  74.05
 0   546574.25  5261973.50    -0.42   -98.00  0.0021   1.54   546573.15  5261974.24 209.27   0.00   0.00   0.00  1476.3 00000  1372936016.60   31   1   0.00  74.05
 0   546574.31  5261973.50    -0.44  -105.00  0.0022   1.59   546573.15  5261974.24 209.27   0.00   0.00   0.00  1476.3 00000  1372936016.60   32   1   0.00  74.05
 0   546574.38  5261973.50    -0.45  -106.00  0.0022   1.64   546573.15  5261974.24 209.27   0.00   0.00   0.00  1476.3 00000  1372936016.60   33   1   0.00  74.05
 0   546574.38  5261973.50    -0.46  -109.00  0.0023   1.69   546573.15  5261974.24 209.27   0.00   0.00   0.00  1476.3 00000  1372936016.60   34   1   0.00  74.05
 0   546574.44  5261973.50    -0.48   -94.00  0.0024   1.73   546573.15  5261974.24 209.27   0.00   0.00   0.00  1476.3 00000  1372936016.60   35   1   0.00  74.05
 0   546574.50  5261973.50    -0.49   -92.00  0.0024   1.78   546573.15  5261974.24 209.27   0.00   0.00   0.00  1476.3 00000  1372936016.60   36   1   0.00  74.05
 0   546574.50  5261973.50    -0.50   -97.00  0.0025   1.83   546573.15  5261974.24 209.27   0.00   0.00   0.00  1476.3 00000  1372936016.60   37   1   0.00  74.05
 0   546574.56  5261973.50    -0.52   -88.00  0.0025   1.88   546573.15  5261974.24 209.27   0.00   0.00   0.00  1476.3 00000  1372936016.60   38   1   0.00  74.05
 0   546574.63  5261973.50    -0.53   -92.00  0.0026   1.93   546573.15  5261974.24 209.27   0.00   0.00   0.00  1476.3 00000  1372936016.60   39   1   0.00  74.05
 0   546574.63  5261973.50    -0.54  -106.00  0.0027   1.98   546573.15  5261974.24 209.27   0.00   0.00   0.00  1476.3 00000  1372936016.60   40   1   0.00  74.05
 0   546574.69  5261973.50    -0.56   -95.00  0.0027   2.02   546573.15  5261974.24 209.27   0.00   0.00   0.00  1476.3 00000  1372936016.60   41   1   0.00  74.05
 0   546574.75  5261973.50    -0.57  -100.00  0.0028   2.07   546573.15  5261974.24 209.27   0.00   0.00   0.00  1476.3 00000  1372936016.60   42   1   0.00  74.05
 0   546574.75  5261973.50    -0.58   -97.00  0.0029   2.12   546573.15  5261974.24 209.27   0.00   0.00   0.00  1476.3 00000  1372936016.60   43   1   0.00  74.05
 0   546574.81  5261973.50    -0.60  -113.00  0.0029   2.17   546573.15  5261974.24 209.27   0.00   0.00   0.00  1476.3 00000  1372936016.60   44   1   0.00  74.05
 0   546574.88  5261973.50    -0.61  -104.00  0.0030   2.22   546573.15  5261974.24 209.27   0.00   0.00   0.00  1476.3 00000  1372936016.60   45   1   0.00  74.05
 0   546574.88  5261973.50    -0.62   -93.00  0.0031   2.26   546573.15  5261974.24 209.27   0.00   0.00   0.00  1476.3 00000  1372936016.60   46   1   0.00  74.05
 0   546574.94  5261973.50    -0.64  -123.00  0.0031   2.31   546573.15  5261974.24 209.27   0.00   0.00   0.00  1476.3 00000  1372936016.60   47   1   0.00  74.05
 0   546574.94  5261973.50    -0.65   -93.00  0.0032   2.36   546573.15  5261974.24 209.27   0.00   0.00   0.00  1476.3 00000  1372936016.60   48   1   0.00  74.05
 0   546575.00  5261973.50    -0.66  -102.00  0.0033   2.41   546573.15  5261974.24 209.27   0.00   0.00   0.00  1476.3 00000  1372936016.60   49   1   0.00  74.05
 0   546575.06  5261973.00    -0.68   -98.00  0.0033   2.46   546573.15  5261974.24 209.27   0.00   0.00   0.00  1476.3 00000  1372936016.60   50   1   0.00  74.05
 0   546575.06  5261973.00    -0.69   -87.00  0.0034   2.51   546573.15  5261974.24 209.27   0.00   0.00   0.00  1476.3 00000  1372936016.60   51   1   0.00  74.05
 0   546575.13  5261973.00    -0.70  -111.00  0.0035   2.55   546573.15  5261974.24 209.27   0.00   0.00   0.00  1476.3 00000  1372936016.60   52   1   0.00  74.05
 0   546575.19  5261973.00    -0.72   -93.00  0.0035   2.60   546573.15  5261974.24 209.27   0.00   0.00   0.00  1476.3 00000  1372936016.60   53   1   0.00  74.05
 0   546575.19  5261973.00    -0.73   -85.00  0.0036   2.65   546573.15  5261974.24 209.27   0.00   0.00   0.00  1476.3 00000  1372936016.60   54   1   0.00  74.05
 0   546575.25  5261973.00    -0.74   -85.00  0.0037   2.70   546573.15  5261974.24 209.27   0.00   0.00   0.00  1476.3 00000  1372936016.60   55   1   0.00  74.05
 0   546575.31  5261973.00    -0.75   -85.00  0.0037   2.75   546573.15  5261974.24 209.27   0.00   0.00   0.00  1476.3 00000  1372936016.60   56   1   0.00  74.05
 0   546575.31  5261973.00    -0.77   -98.00  0.0038   2.79   546573.15  5261974.24 209.27   0.00   0.00   0.00  1476.3 00000  1372936016.60   57   1   0.00  74.05
 0   546575.38  5261973.00    -0.78   -94.00  0.0039   2.84   546573.15  5261974.24 209.27   0.00   0.00   0.00  1476.3 00000  1372936016.60   58   1   0.00  74.05
 0   546575.44  5261973.00    -0.79   -92.00  0.0039   2.89   546573.15  5261974.24 209.27   0.00   0.00   0.00  1476.3 00000  1372936016.60   59   1   0.00  74.05
 0   546575.44  5261973.00    -0.81  -127.00  0.0040   2.94   546573.15  5261974.24 209.27   0.00   0.00   0.00  1476.3 00000  1372936016.60   60   1   0.00  74.05
 0   546575.50  5261973.00    -0.82  -111.00  0.0040   2.99   546573.15  5261974.24 209.27   0.00   0.00   0.00  1476.3 00000  1372936016.60   61   1   0.00  74.05
 0   546575.56  5261973.00    -0.83   -97.00  0.0041   3.04   546573.15  5261974.24 209.27   0.00   0.00   0.00  1476.3 00000  1372936016.60   62   1   0.00  74.05
 0   546575.56  5261973.00    -0.85   -95.00  0.0042   3.08   546573.15  5261974.24 209.27   0.00   0.00   0.00  1476.3 00000  1372936016.60   63   1   0.00  74.05
 0   546575.63  5261973.00    -0.86  -100.00  0.0042   3.13   546573.15  5261974.24 209.27   0.00   0.00   0.00  1476.3 00000  1372936016.60   64   1   0.00  74.05
 0   546575.69  5261973.00    -0.87   -90.00  0.0043   3.18   546573.15  5261974.24 209.27   0.00   0.00   0.00  1476.3 00000  1372936016.60   65   1   0.00  74.05
 0   546575.69  5261973.00    -0.89   -82.00  0.0044   3.23   546573.15  5261974.24 209.27   0.00   0.00   0.00  1476.3 00000  1372936016.60   66   1   0.00  74.05
 0   546575.75  5261973.00    -0.90  -114.00  0.0044   3.28   546573.15  5261974.24 209.27   0.00   0.00   0.00  1476.3 00000  1372936016.60   67   1   0.00  74.05
 0   546575.75  5261973.00    -0.91  -102.00  0.0045   3.32   546573.15  5261974.24 209.27   0.00   0.00   0.00  1476.3 00000  1372936016.60   68   1   0.00  74.05
 0   546575.81  5261973.00    -0.93   -89.00  0.0046   3.37   546573.15  5261974.24 209.27   0.00   0.00   0.00  1476.3 00000  1372936016.60   69   1   0.00  74.05
 0   546575.88  5261973.00    -0.94  -110.00  0.0046   3.42   546573.15  5261974.24 209.27   0.00   0.00   0.00  1476.3 00000  1372936016.60   70   1   0.00  74.05
 0   546575.88  5261973.00    -0.95   -98.00  0.0047   3.47   546573.15  5261974.24 209.27   0.00   0.00   0.00  1476.3 00000  1372936016.60   71   1   0.00  74.05
 0   546575.94  5261973.00    -0.97   -88.00  0.0048   3.52   546573.15  5261974.24 209.27   0.00   0.00   0.00  1476.3 00000  1372936016.60   72   1   0.00  74.05
 0   546576.00  5261972.50    -0.98   -81.00  0.0048   3.57   546573.15  5261974.24 209.27   0.00   0.00   0.00  1476.3 00000  1372936016.60   73   1   0.00  74.05
 0   546576.00  5261972.50    -0.99   -84.00  0.0049   3.61   546573.15  5261974.24 209.27   0.00   0.00   0.00  1476.3 00000  1372936016.60   74   1   0.00  74.05
 0   546576.06  5261972.50    -1.01   -93.00  0.0050   3.66   546573.15  5261974.24 209.27   0.00   0.00   0.00  1476.3 00000  1372936016.60   75   1   0.00  74.05
 0   546576.13  5261972.50    -1.02   -76.00  0.0050   3.71   546573.15  5261974.24 209.27   0.00   0.00   0.00  1476.3 00000  1372936016.60   76   1   0.00  74.05
 0   546576.13  5261972.50    -1.03   -78.00  0.0051   3.76   546573.15  5261974.24 209.27   0.00   0.00   0.00  1476.3 00000  1372936016.60   77   1   0.00  74.05
 0   546576.19  5261972.50    -1.05   -79.00  0.0052   3.81   546573.15  5261974.24 209.27   0.00   0.00   0.00  1476.3 00000  1372936016.60   78   1   0.00  74.05
 0   546576.25  5261972.50    -1.06   -76.00  0.0052   3.85   546573.15  5261974.24 209.27   0.00   0.00   0.00  1476.3 00000  1372936016.60   79   1   0.00  74.05
 0   546576.25  5261972.50    -1.07   -98.00  0.0053   3.90   546573.15  5261974.24 209.27   0.00   0.00   0.00  1476.3 00000  1372936016.60   80   1   0.00  74.05
 0   546576.31  5261972.50    -1.09   -81.00  0.0054   3.95   546573.15  5261974.24 209.27   0.00   0.00   0.00  1476.3 00000  1372936016.60   81   1   0.00  74.05
 0   546576.38  5261972.50    -1.10   -83.00  0.0054   4.00   546573.15  5261974.24 209.27   0.00   0.00   0.00  1476.3 00000  1372936016.60   82   1   0.00  74.05
 0   546576.38  5261972.50    -1.11   -86.00  0.0055   4.05   546573.15  5261974.24 209.27   0.00   0.00   0.00  1476.3 00000  1372936016.60   83   1   0.00  74.05
 0   546576.44  5261972.50    -1.13   -88.00  0.0055   4.10   546573.15  5261974.24 209.27   0.00   0.00   0.00  1476.3 00000  1372936016.60   84   1   0.00  74.05
 0   546576.50  5261972.50    -1.14   -79.00  0.0056   4.14   546573.15  5261974.24 209.27   0.00   0.00   0.00  1476.3 00000  1372936016.60   85   1   0.00  74.05
 0   546576.50  5261972.50    -1.15   -75.00  0.0057   4.19   546573.15  5261974.24 209.27   0.00   0.00   0.00  1476.3 00000  1372936016.60   86   1   0.00  74.05
 0   546576.56  5261972.50    -1.17   -85.00  0.0057   4.24   546573.15  5261974.24 209.27   0.00   0.00   0.00  1476.3 00000  1372936016.60   87   1   0.00  74.05
 0   546576.56  5261972.50    -1.18   -92.00  0.0058   4.29   546573.15  5261974.24 209.27   0.00   0.00   0.00  1476.3 00000  1372936016.60   88   1   0.00  74.05
 0   546576.63  5261972.50    -1.19   -84.00  0.0059   4.34   546573.15  5261974.24 209.27   0.00   0.00   0.00  1476.3 00000  1372936016.60   89   1   0.00  74.05
 0   546576.69  5261972.50    -1.20   -76.00  0.0059   4.38   546573.15  5261974.24 209.27   0.00   0.00   0.00  1476.3 00000  1372936016.60   90   1   0.00  74.05
 0   546576.69  5261972.50    -1.22   -84.00  0.0060   4.43   546573.15  5261974.24 209.27   0.00   0.00   0.00  1476.3 00000  1372936016.60   91   1   0.00  74.05
 0   546576.75  5261972.50    -1.23  -101.00  0.0061   4.48   546573.15  5261974.24 209.27   0.00   0.00   0.00  1476.3 00000  1372936016.60   92   1   0.00  74.05
 0   546576.81  5261972.50    -1.24   -84.00  0.0061   4.53   546573.15  5261974.24 209.27   0.00   0.00   0.00  1476.3 00000  1372936016.60   93   1   0.00  74.05
 0   546576.81  5261972.50    -1.26   -86.00  0.0062   4.58   546573.15  5261974.24 209.27   0.00   0.00   0.00  1476.3 00000  1372936016.60   94   1   0.00  74.05
 0   546576.88  5261972.00    -1.27  -108.00  0.0063   4.63   546573.15  5261974.24 209.27   0.00   0.00   0.00  1476.3 00000  1372936016.60   95   1   0.00  74.05
 0   546576.94  5261972.00    -1.28   -78.00  0.0063   4.67   546573.15  5261974.24 209.27   0.00   0.00   0.00  1476.3 00000  1372936016.60   96   1   0.00  74.05
 0   546576.94  5261972.00    -1.30   -69.00  0.0064   4.72   546573.15  5261974.24 209.27   0.00   0.00   0.00  1476.3 00000  1372936016.60   97   1   0.00  74.05
 0   546577.00  5261972.00    -1.31   -77.00  0.0065   4.77   546573.15  5261974.24 209.27   0.00   0.00   0.00  1476.3 00000  1372936016.60   98   1   0.00  74.05
 0   546577.06  5261972.00    -1.32   -84.00  0.0065   4.82   546573.15  5261974.24 209.27   0.00   0.00   0.00  1476.3 00000  1372936016.60   99   1   0.00  74.05
 0   546577.06  5261972.00    -1.34   -80.00  0.0066   4.87   546573.15  5261974.24 209.27   0.00   0.00   0.00  1476.3 00000  1372936016.60  100   1   0.00  74.05
 0   546577.13  5261972.00    -1.35   -69.00  0.0067   4.92   546573.15  5261974.24 209.27   0.00   0.00   0.00  1476.3 00000  1372936016.60  101   1   0.00  74.05
 0   546577.19  5261972.00    -1.36   -78.00  0.0067   4.96   546573.15  5261974.24 209.27   0.00   0.00   0.00  1476.3 00000  1372936016.60  102   1   0.00  74.05
 0   546577.19  5261972.00    -1.38   -74.00  0.0068   5.01   546573.15  5261974.24 209.27   0.00   0.00   0.00  1476.3 00000  1372936016.60  103   1   0.00  74.05
 0   546577.25  5261972.00    -1.39   -75.00  0.0069   5.06   546573.15  5261974.24 209.27   0.00   0.00   0.00  1476.3 00000  1372936016.60  104   1   0.00  74.05
 0   546577.25  5261972.00    -1.40   -73.00  0.0069   5.11   546573.15  5261974.24 209.27   0.00   0.00   0.00  1476.3 00000  1372936016.60  105   1   0.00  74.05
 0   546577.31  5261972.00    -1.42   -65.00  0.0070   5.16   546573.15  5261974.24 209.27   0.00   0.00   0.00  1476.3 00000  1372936016.60  106   1   0.00  74.05
 0   546577.38  5261972.00    -1.43   -64.00  0.0071   5.20   546573.15  5261974.24 209.27   0.00   0.00   0.00  1476.3 00000  1372936016.60  107   1   0.00  74.05
 0   546577.38  5261972.00    -1.44   -82.00  0.0071   5.25   546573.15  5261974.24 209.27   0.00   0.00   0.00  1476.3 00000  1372936016.60  108   1   0.00  74.05
 0   546577.44  5261972.00    -1.46   -84.00  0.0072   5.30   546573.15  5261974.24 209.27   0.00   0.00   0.00  1476.3 00000  1372936016.60  109   1   0.00  74.05
 0   546577.50  5261972.00    -1.47   -58.00  0.0072   5.35   546573.15  5261974.24 209.27   0.00   0.00   0.00  1476.3 00000  1372936016.60  110   1   0.00  74.05
 0   546577.50  5261972.00    -1.48   -54.00  0.0073   5.40   546573.15  5261974.24 209.27   0.00   0.00   0.00  1476.3 00000  1372936016.60  111   1   0.00  74.05
 0   546577.56  5261972.00    -1.50   -39.00  0.0074   5.45   546573.15  5261974.24 209.27   0.00   0.00   0.00  1476.3 00000  1372936016.60  112   1   0.00  74.05
 0   546577.63  5261972.00    -1.51    -9.00  0.0074   5.49   546573.15  5261974.24 209.27   0.00   0.00   0.00  1476.3 00000  1372936016.60  113   1   0.00  74.05
 0   546577.63  5261972.00    -1.52     7.00  0.0075   5.54   546573.15  5261974.24 209.27   0.00   0.00   0.00  1476.3 00000  1372936016.60  114   1   0.00  74.05
 0   546577.69  5261972.00    -1.54     3.00  0.0076   5.59   546573.15  5261974.24 209.27   0.00   0.00   0.00  1476.3 00000  1372936016.60  115   1   0.00  74.05
 0   546577.75  5261972.00    -1.55    13.00  0.0076   5.64   546573.15  5261974.24 209.27   0.00   0.00   0.00  1476.3 00000  1372936016.60  116   1   0.00  74.05
 0   546577.75  5261971.50    -1.56     5.00  0.0077   5.69   546573.15  5261974.24 209.27   0.00   0.00   0.00  1476.3 00000  1372936016.60  117   1   0.00  74.05
 0   546577.81  5261971.50    -1.58   -16.00  0.0078   5.73   546573.15  5261974.24 209.27   0.00   0.00   0.00  1476.3 00000  1372936016.60  118   1   0.00  74.05
 0   546577.88  5261971.50    -1.59     3.00  0.0078   5.78   546573.15  5261974.24 209.27   0.00   0.00   0.00  1476.3 00000  1372936016.60  119   1   0.00  74.05
 0   546577.94  5261971.50    -1.62   -15.00  0.0080   5.88   546573.15  5261974.24 209.27   0.00   0.00   0.00  1476.3 00000  1372936016.60  121   1   0.00  74.05
 0   546578.00  5261971.50    -1.63    -8.00  0.0080   5.93   546573.15  5261974.24 209.27   0.00   0.00   0.00  1476.3 00000  1372936016.60  122   1   0.00  74.05
 0   546578.00  5261971.50    -1.64   -38.00  0.0081   5.98   546573.15  5261974.24 209.27   0.00   0.00   0.00  1476.3 00000  1372936016.60  123   1   0.00  74.05
 0   546578.06  5261971.50    -1.66   -16.00  0.0082   6.02   546573.15  5261974.24 209.27   0.00   0.00   0.00  1476.3 00000  1372936016.60  124   1   0.00  74.05
 0   546578.06  5261971.50    -1.67   -34.00  0.0082   6.07   546573.15  5261974.24 209.27   0.00   0.00   0.00  1476.3 00000  1372936016.60  125   1   0.00  74.05
 0   546578.13  5261971.50    -1.68   -12.00  0.0083   6.12   546573.15  5261974.24 209.27   0.00   0.00   0.00  1476.3 00000  1372936016.60  126   1   0.00  74.05
 0   546578.19  5261971.50    -1.69   -11.00  0.0084   6.17   546573.15  5261974.24 209.27   0.00   0.00   0.00  1476.3 00000  1372936016.60  127   1   0.00  74.05
 0   546578.19  5261971.50    -1.71   -30.00  0.0084   6.22   546573.15  5261974.24 209.27   0.00   0.00   0.00  1476.3 00000  1372936016.60  128   1   0.00  74.05
 0   546578.25  5261971.50    -1.72   -37.00  0.0085   6.26   546573.15  5261974.24 209.27   0.00   0.00   0.00  1476.3 00000  1372936016.60  129   1   0.00  74.05
 0   546578.31  5261971.50    -1.73    -9.00  0.0086   6.31   546573.15  5261974.24 209.27   0.00   0.00   0.00  1476.3 00000  1372936016.60  130   1   0.00  74.05
 0   546578.31  5261971.50    -1.75   -30.00  0.0086   6.36   546573.15  5261974.24 209.27   0.00   0.00   0.00  1476.3 00000  1372936016.60  131   1   0.00  74.05
 0   546578.38  5261971.50    -1.76   -43.00  0.0087   6.41   546573.15  5261974.24 209.27   0.00   0.00   0.00  1476.3 00000  1372936016.60  132   1   0.00  74.05
 0   546578.44  5261971.50    -1.77   -28.00  0.0087   6.46   546573.15  5261974.24 209.27   0.00   0.00   0.00  1476.3 00000  1372936016.60  133   1   0.00  74.05
 0   546578.44  5261971.50    -1.79   -21.00  0.0088   6.51   546573.15  5261974.24 209.27   0.00   0.00   0.00  1476.3 00000  1372936016.60  134   1   0.00  74.05
 0   546578.50  5261971.50    -1.80   -12.00  0.0089   6.55   546573.15  5261974.24 209.27   0.00   0.00   0.00  1476.3 00000  1372936016.60  135   1   0.00  74.05
 0   546578.56  5261971.50    -1.81    -5.00  0.0089   6.60   546573.15  5261974.24 209.27   0.00   0.00   0.00  1476.3 00000  1372936016.60  136   1   0.00  74.05
 0   546578.56  5261971.50    -1.83    -2.00  0.0090   6.65   546573.15  5261974.24 209.27   0.00   0.00   0.00  1476.3 00000  1372936016.60  137   1   0.00  74.05
 0   546578.63  5261971.50    -1.84     3.00  0.0091   6.70   546573.15  5261974.24 209.27   0.00   0.00   0.00  1476.3 00000  1372936016.60  138   1   0.00  74.05
 0   546578.69  5261971.50    -1.85    -2.00  0.0091   6.75   546573.15  5261974.24 209.27   0.00   0.00   0.00  1476.3 00000  1372936016.60  139   1   0.00  74.05
 0   546578.69  5261971.00    -1.87   -31.00  0.0092   6.79   546573.15  5261974.24 209.27   0.00   0.00   0.00  1476.3 00000  1372936016.60  140   1   0.00  74.05
 0   546578.75  5261971.00    -1.88   -24.00  0.0093   6.84   546573.15  5261974.24 209.27   0.00   0.00   0.00  1476.3 00000  1372936016.60  141   1   0.00  74.05
 0   546578.81  5261971.00    -1.89   -11.00  0.0093   6.89   546573.15  5261974.24 209.27   0.00   0.00   0.00  1476.3 00000  1372936016.60  142   1   0.00  74.05
 0   546578.81  5261971.00    -1.91   -16.00  0.0094   6.94   546573.15  5261974.24 209.27   0.00   0.00   0.00  1476.3 00000  1372936016.60  143   1   0.00  74.05
 0   546578.88  5261971.00    -1.92   -20.00  0.0095   6.99   546573.15  5261974.24 209.27   0.00   0.00   0.00  1476.3 00000  1372936016.60  144   1   0.00  74.05
 0   546578.88  5261971.00    -1.93   -30.00  0.0095   7.04   546573.15  5261974.24 209.27   0.00   0.00   0.00  1476.3 00000  1372936016.60  145   1   0.00  74.05
 0   546578.94  5261971.00    -1.95   -20.00  0.0096   7.08   546573.15  5261974.24 209.27   0.00   0.00   0.00  1476.3 00000  1372936016.60  146   1   0.00  74.05
 0   546579.00  5261971.00    -1.96   -24.00  0.0097   7.13   546573.15  5261974.24 209.27   0.00   0.00   0.00  1476.3 00000  1372936016.60  147   1   0.00  74.05
 0   546579.00  5261971.00    -1.97   -46.00  0.0097   7.18   546573.15  5261974.24 209.27   0.00   0.00   0.00  1476.3 00000  1372936016.60  148   1   0.00  74.05
 0   546579.06  5261971.00    -1.99   -14.00  0.0098   7.23   546573.15  5261974.24 209.27   0.00   0.00   0.00  1476.3 00000  1372936016.60  149   1   0.00  74.05
 0   546579.13  5261971.00    -2.00    -8.00  0.0099   7.28   546573.15  5261974.24 209.27   0.00   0.00   0.00  1476.3 00000  1372936016.60  150   1   0.00  74.05
 0   546579.13  5261971.00    -2.01   -36.00  0.0099   7.32   546573.15  5261974.24 209.27   0.00   0.00   0.00  1476.3 00000  1372936016.60  151   1   0.00  74.05
 0   546579.19  5261971.00    -2.03   -32.00  0.0100   7.37   546573.15  5261974.24 209.27   0.00   0.00   0.00  1476.3 00000  1372936016.60  152   1   0.00  74.05
 0   546579.25  5261971.00    -2.04   -35.00  0.0101   7.42   546573.15  5261974.24 209.27   0.00   0.00   0.00  1476.3 00000  1372936016.60  153   1   0.00  74.05
 0   546579.25  5261971.00    -2.05   -19.00  0.0101   7.47   546573.15  5261974.24 209.27   0.00   0.00   0.00  1476.3 00000  1372936016.60  154   1   0.00  74.05
 0   546579.31  5261971.00    -2.07   -23.00  0.0102   7.52   546573.15  5261974.24 209.27   0.00   0.00   0.00  1476.3 00000  1372936016.60  155   1   0.00  74.05
 0   546579.38  5261971.00    -2.08    -5.00  0.0102   7.57   546573.15  5261974.24 209.27   0.00   0.00   0.00  1476.3 00000  1372936016.60  156   1   0.00  74.05
 0   546579.38  5261971.00    -2.09    -2.00  0.0103   7.61   546573.15  5261974.24 209.27   0.00   0.00   0.00  1476.3 00000  1372936016.60  157   1   0.00  74.05
 0   546579.44  5261971.00    -2.11    -6.00  0.0104   7.66   546573.15  5261974.24 209.27   0.00   0.00   0.00  1476.3 00000  1372936016.60  158   1   0.00  74.05
 0   546579.50  5261971.00    -2.12   -18.00  0.0104   7.71   546573.15  5261974.24 209.27   0.00   0.00   0.00  1476.3 00000  1372936016.60  159   1   0.00  74.05
 0   546579.50  5261971.00    -2.13   -31.00  0.0105   7.76   546573.15  5261974.24 209.27   0.00   0.00   0.00  1476.3 00000  1372936016.60  160   1   0.00  74.05
 0   546579.56  5261971.00    -2.15   -28.00  0.0106   7.81   546573.15  5261974.24 209.27   0.00   0.00   0.00  1476.3 00000  1372936016.60  161   1   0.00  74.05
 0   546579.56  5261970.50    -2.16   -13.00  0.0106   7.85   546573.15  5261974.24 209.27   0.00   0.00   0.00  1476.3 00000  1372936016.60  162   1   0.00  74.05
 0   546579.63  5261970.50    -2.17   -20.00  0.0107   7.90   546573.15  5261974.24 209.27   0.00   0.00   0.00  1476.3 00000  1372936016.60  163   1   0.00  74.05
 0   546579.69  5261970.50    -2.18   -18.00  0.0108   7.95   546573.15  5261974.24 209.27   0.00   0.00   0.00  1476.3 00000  1372936016.60  164   1   0.00  74.05
 0   546579.69  5261970.50    -2.20   -32.00  0.0108   8.00   546573.15  5261974.24 209.27   0.00   0.00   0.00  1476.3 00000  1372936016.60  165   1   0.00  74.05
 0   546579.75  5261970.50    -2.21   -12.00  0.0109   8.05   546573.15  5261974.24 209.27   0.00   0.00   0.00  1476.3 00000  1372936016.60  166   1   0.00  74.05
 0   546579.81  5261970.50    -2.22     2.00  0.0110   8.10   546573.15  5261974.24 209.27   0.00   0.00   0.00  1476.3 00000  1372936016.60  167   1   0.00  74.05
 0   546579.81  5261970.50    -2.24     5.00  0.0110   8.14   546573.15  5261974.24 209.27   0.00   0.00   0.00  1476.3 00000  1372936016.60  168   1   0.00  74.05
 0   546579.88  5261970.50    -2.25    -7.00  0.0111   8.19   546573.15  5261974.24 209.27   0.00   0.00   0.00  1476.3 00000  1372936016.60  169   1   0.00  74.05
 0   546579.94  5261970.50    -2.26   -12.00  0.0112   8.24   546573.15  5261974.24 209.27   0.00   0.00   0.00  1476.3 00000  1372936016.60  170   1   0.00  74.05
 0   546579.94  5261970.50    -2.28   -17.00  0.0112   8.29   546573.15  5261974.24 209.27   0.00   0.00   0.00  1476.3 00000  1372936016.60  171   1   0.00  74.05
 0   546580.00  5261970.50    -2.29    -8.00  0.0113   8.34   546573.15  5261974.24 209.27   0.00   0.00   0.00  1476.3 00000  1372936016.60  172   1   0.00  74.05
 0   546580.06  5261970.50    -2.30    -2.00  0.0114   8.38   546573.15  5261974.24 209.27   0.00   0.00   0.00  1476.3 00000  1372936016.60  173   1   0.00  74.05
 0   546580.06  5261970.50    -2.32    -5.00  0.0114   8.43   546573.15  5261974.24 209.27   0.00   0.00   0.00  1476.3 00000  1372936016.60  174   1   0.00  74.05
 0   546580.13  5261970.50    -2.33    -4.00  0.0115   8.48   546573.15  5261974.24 209.27   0.00   0.00   0.00  1476.3 00000  1372936016.60  175   1   0.00  74.05
 0   546580.19  5261970.50    -2.34   -14.00  0.0116   8.53   546573.15  5261974.24 209.27   0.00   0.00   0.00  1476.3 00000  1372936016.60  176   1   0.00  74.05
 0   546580.19  5261970.50    -2.36   -17.00  0.0116   8.58   546573.15  5261974.24 209.27   0.00   0.00   0.00  1476.3 00000  1372936016.60  177   1   0.00  74.05
 0   546580.25  5261970.50    -2.37   -20.00  0.0117   8.63   546573.15  5261974.24 209.27   0.00   0.00   0.00  1476.3 00000  1372936016.60  178   1   0.00  74.05
 0   546580.31  5261970.50    -2.38    -4.00  0.0118   8.67   546573.15  5261974.24 209.27   0.00   0.00   0.00  1476.3 00000  1372936016.60  179   1   0.00  74.05
 0   546580.31  5261970.50    -2.40   -12.00  0.0118   8.72   546573.15  5261974.24 209.27   0.00   0.00   0.00  1476.3 00000  1372936016.60  180   1   0.00  74.05
 0   546580.38  5261970.50    -2.41   -11.00  0.0119   8.77   546573.15  5261974.24 209.27   0.00   0.00   0.00  1476.3 00000  1372936016.60  181   1   0.00  74.05
 0   546580.38  5261970.50    -2.42    -3.00  0.0119   8.82   546573.15  5261974.24 209.27   0.00   0.00   0.00  1476.3 00000  1372936016.60  182   1   0.00  74.05
 0   546580.44  5261970.50    -2.44   -18.00  0.0120   8.87   546573.15  5261974.24 209.27   0.00   0.00   0.00  1476.3 00000  1372936016.60  183   1   0.00  74.05
 0   546580.50  5261970.00    -2.45   -13.00  0.0121   8.91   546573.15  5261974.24 209.27   0.00   0.00   0.00  1476.3 00000  1372936016.60  184   1   0.00  74.05
 0   546580.50  5261970.00    -2.46   -14.00  0.0121   8.96   546573.15  5261974.24 209.27   0.00   0.00   0.00  1476.3 00000  1372936016.60  185   1   0.00  74.05
 0   546580.56  5261970.00    -2.48   -11.00  0.0122   9.01   546573.15  5261974.24 209.27   0.00   0.00   0.00  1476.3 00000  1372936016.60  186   1   0.00  74.05
 0   546580.63  5261970.00    -2.49   -22.00  0.0123   9.06   546573.15  5261974.24 209.27   0.00   0.00   0.00  1476.3 00000  1372936016.60  187   1   0.00  74.05
 0   546580.63  5261970.00    -2.50   -26.00  0.0123   9.11   546573.15  5261974.24 209.27   0.00   0.00   0.00  1476.3 00000  1372936016.60  188   1   0.00  74.05
 0   546580.69  5261970.00    -2.52   -30.00  0.0124   9.16   546573.15  5261974.24 209.27   0.00   0.00   0.00  1476.3 00000  1372936016.60  189   1   0.00  74.05
 0   546580.75  5261970.00    -2.53   -24.00  0.0125   9.20   546573.15  5261974.24 209.27   0.00   0.00   0.00  1476.3 00000  1372936016.60  190   1   0.00  74.05
 0   546580.75  5261970.00    -2.54   -24.00  0.0125   9.25   546573.15  5261974.24 209.27   0.00   0.00   0.00  1476.3 00000  1372936016.60  191   1   0.00  74.05
 0   546580.81  5261970.00    -2.56   -10.00  0.0126   9.30   546573.15  5261974.24 209.27   0.00   0.00   0.00  1476.3 00000  1372936016.60  192   1   0.00  74.05
 0   546580.88  5261970.00    -2.57   -10.00  0.0127   9.35   546573.15  5261974.24 209.27   0.00   0.00   0.00  1476.3 00000  1372936016.60  193   1   0.00  74.05
 0   546580.88  5261970.00    -2.58   -62.00  0.0127   9.40   546573.15  5261974.24 209.27   0.00   0.00   0.00  1476.3 00000  1372936016.60  194   1   0.00  74.05
 0   546580.94  5261970.00    -2.60   -17.00  0.0128   9.44   546573.15  5261974.24 209.27   0.00   0.00   0.00  1476.3 00000  1372936016.60  195   1   0.00  74.05
 0   546581.00  5261970.00    -2.61   -27.00  0.0129   9.49   546573.15  5261974.24 209.27   0.00   0.00   0.00  1476.3 00000  1372936016.60  196   1   0.00  74.05
 0   546581.00  5261970.00    -2.62   -19.00  0.0129   9.54   546573.15  5261974.24 209.27   0.00   0.00   0.00  1476.3 00000  1372936016.60  197   1   0.00  74.05
 0   546581.06  5261970.00    -2.64   -13.00  0.0130   9.59   546573.15  5261974.24 209.27   0.00   0.00   0.00  1476.3 00000  1372936016.60  198   1   0.00  74.05
 0   546581.13  5261970.00    -2.65   -12.00  0.0131   9.64   546573.15  5261974.24 209.27   0.00   0.00   0.00  1476.3 00000  1372936016.60  199   1   0.00  74.05
 0   546581.13  5261970.00    -2.66   -25.00  0.0131   9.69   546573.15  5261974.24 209.27   0.00   0.00   0.00  1476.3 00000  1372936016.60  200   1   0.00  74.05
 0   546581.19  5261970.00    -2.67   -39.00  0.0132   9.73   546573.15  5261974.24 209.27   0.00   0.00   0.00  1476.3 00000  1372936016.60  201   1   0.00  74.05
 0   546581.19  5261970.00    -2.69   -32.00  0.0133   9.78   546573.15  5261974.24 209.27   0.00   0.00   0.00  1476.3 00000  1372936016.60  202   1   0.00  74.05
 0   546581.25  5261970.00    -2.70   -26.00  0.0133   9.83   546573.15  5261974.24 209.27   0.00   0.00   0.00  1476.3 00000  1372936016.60  203   1   0.00  74.05
 0   546581.31  5261970.00    -2.71   -34.00  0.0134   9.88   546573.15  5261974.24 209.27   0.00   0.00   0.00  1476.3 00000  1372936016.60  204   1   0.00  74.05
 0   546581.31  5261970.00    -2.73   -18.00  0.0134   9.93   546573.15  5261974.24 209.27   0.00   0.00   0.00  1476.3 00000  1372936016.60  205   1   0.00  74.05
 0   546581.38  5261970.00    -2.74   -18.00  0.0135   9.97   546573.15  5261974.24 209.27   0.00   0.00   0.00  1476.3 00000  1372936016.60  206   1   0.00  74.05
 0   546581.44  5261969.50    -2.75   -52.00  0.0136  10.02   546573.15  5261974.24 209.27   0.00   0.00   0.00  1476.3 00000  1372936016.60  207   1   0.00  74.05
 0   546581.44  5261969.50    -2.77   -35.00  0.0136  10.07   546573.15  5261974.24 209.27   0.00   0.00   0.00  1476.3 00000  1372936016.60  208   1   0.00  74.05
 0   546581.50  5261969.50    -2.78   -10.00  0.0137  10.12   546573.15  5261974.24 209.27   0.00   0.00   0.00  1476.3 00000  1372936016.60  209   1   0.00  74.05
 0   546581.56  5261969.50    -2.79   -26.00  0.0138  10.17   546573.15  5261974.24 209.27   0.00   0.00   0.00  1476.3 00000  1372936016.60  210   1   0.00  74.05
 0   546581.56  5261969.50    -2.81   -21.00  0.0138  10.22   546573.15  5261974.24 209.27   0.00   0.00   0.00  1476.3 00000  1372936016.60  211   1   0.00  74.05
 0   546581.63  5261969.50    -2.82   -21.00  0.0139  10.26   546573.15  5261974.24 209.27   0.00   0.00   0.00  1476.3 00000  1372936016.60  212   1   0.00  74.05
 0   546581.69  5261969.50    -2.83   -35.00  0.0140  10.31   546573.15  5261974.24 209.27   0.00   0.00   0.00  1476.3 00000  1372936016.60  213   1   0.00  74.05
 0   546581.69  5261969.50    -2.85   -21.00  0.0140  10.36   546573.15  5261974.24 209.27   0.00   0.00   0.00  1476.3 00000  1372936016.60  214   1   0.00  74.05
 0   546581.75  5261969.50    -2.86   -33.00  0.0141  10.41   546573.15  5261974.24 209.27   0.00   0.00   0.00  1476.3 00000  1372936016.60  215   1   0.00  74.05
 0   546581.81  5261969.50    -2.87   -39.00  0.0142  10.46   546573.15  5261974.24 209.27   0.00   0.00   0.00  1476.3 00000  1372936016.60  216   1   0.00  74.05
 0   546581.81  5261969.50    -2.89   -20.00  0.0142  10.50   546573.15  5261974.24 209.27   0.00   0.00   0.00  1476.3 00000  1372936016.60  217   1   0.00  74.05
 0   546581.88  5261969.50    -2.90   -27.00  0.0143  10.55   546573.15  5261974.24 209.27   0.00   0.00   0.00  1476.3 00000  1372936016.60  218   1   0.00  74.05
 0   546581.88  5261969.50    -2.91   -25.00  0.0144  10.60   546573.15  5261974.24 209.27   0.00   0.00   0.00  1476.3 00000  1372936016.60  219   1   0.00  74.05
 0   546581.94  5261969.50    -2.93   -35.00  0.0144  10.65   546573.15  5261974.24 209.27   0.00   0.00   0.00  1476.3 00000  1372936016.60  220   1   0.00  74.05
 0   546582.00  5261969.50    -2.94   -13.00  0.0145  10.70   546573.15  5261974.24 209.27   0.00   0.00   0.00  1476.3 00000  1372936016.60  221   1   0.00  74.05
 0   546582.00  5261969.50    -2.95    -9.00  0.0146  10.75   546573.15  5261974.24 209.27   0.00   0.00   0.00  1476.3 00000  1372936016.60  222   1   0.00  74.05
 0   546582.06  5261969.50    -2.97   -11.00  0.0146  10.79   546573.15  5261974.24 209.27   0.00   0.00   0.00  1476.3 00000  1372936016.60  223   1   0.00  74.05
 0   546582.13  5261969.50    -2.98   -12.00  0.0147  10.84   546573.15  5261974.24 209.27   0.00   0.00   0.00  1476.3 00000  1372936016.60  224   1   0.00  74.05
 0   546582.13  5261969.50    -2.99   -20.00  0.0148  10.89   546573.15  5261974.24 209.27   0.00   0.00   0.00  1476.3 00000  1372936016.60  225   1   0.00  74.05
 0   546582.19  5261969.50    -3.01   -31.00  0.0148  10.94   546573.15  5261974.24 209.27   0.00   0.00   0.00  1476.3 00000  1372936016.60  226   1   0.00  74.05
 0   546582.25  5261969.50    -3.02   -34.00  0.0149  10.99   546573.15  5261974.24 209.27   0.00   0.00   0.00  1476.3 00000  1372936016.60  227   1   0.00  74.05
 0   546582.25  5261969.50    -3.03   -27.00  0.0149  11.03   546573.15  5261974.24 209.27   0.00   0.00   0.00  1476.3 00000  1372936016.60  228   1   0.00  74.05
 0   546582.31  5261969.00    -3.05   -24.00  0.0150  11.08   546573.15  5261974.24 209.27   0.00   0.00   0.00  1476.3 00000  1372936016.60  229   1   0.00  74.05
 0   546582.38  5261969.00    -3.06   -22.00  0.0151  11.13   546573.15  5261974.24 209.27   0.00   0.00   0.00  1476.3 00000  1372936016.60  230   1   0.00  74.05
 0   546582.38  5261969.00    -3.07   -21.00  0.0151  11.18   546573.15  5261974.24 209.27   0.00   0.00   0.00  1476.3 00000  1372936016.60  231   1   0.00  74.05
 0   546582.44  5261969.00    -3.09   -52.00  0.0152  11.23   546573.15  5261974.24 209.27   0.00   0.00   0.00  1476.3 00000  1372936016.60  232   1   0.00  74.05
 0   546582.50  5261969.00    -3.10   -43.00  0.0153  11.28   546573.15  5261974.24 209.27   0.00   0.00   0.00  1476.3 00000  1372936016.60  233   1   0.00  74.05
 0   546582.50  5261969.00    -3.11   -22.00  0.0153  11.32   546573.15  5261974.24 209.27   0.00   0.00   0.00  1476.3 00000  1372936016.60  234   1   0.00  74.05
 0   546582.56  5261969.00    -3.13   -45.00  0.0154  11.37   546573.15  5261974.24 209.27   0.00   0.00   0.00  1476.3 00000  1372936016.60  235   1   0.00  74.05
 0   546582.63  5261969.00    -3.14   -31.00  0.0155  11.42   546573.15  5261974.24 209.27   0.00   0.00   0.00  1476.3 00000  1372936016.60  236   1   0.00  74.05
 0   546582.63  5261969.00    -3.15   -42.00  0.0155  11.47   546573.15  5261974.24 209.27   0.00   0.00   0.00  1476.3 00000  1372936016.60  237   1   0.00  74.05
 0   546582.69  5261969.00    -3.16   -47.00  0.0156  11.52   546573.15  5261974.24 209.27   0.00   0.00   0.00  1476.3 00000  1372936016.60  238   1   0.00  74.05
 0   546582.69  5261969.00    -3.18   -24.00  0.0157  11.56   546573.15  5261974.24 209.27   0.00   0.00   0.00  1476.3 00000  1372936016.60  239   1   0.00  74.05
 0   546582.75  5261969.00    -3.19   -22.00  0.0157  11.61   546573.15  5261974.24 209.27   0.00   0.00   0.00  1476.3 00000  1372936016.60  240   1   0.00  74.05
 0   546582.81  5261969.00    -3.20   -28.00  0.0158  11.66   546573.15  5261974.24 209.27   0.00   0.00   0.00  1476.3 00000  1372936016.60  241   1   0.00  74.05
 0   546582.81  5261969.00    -3.22   -47.00  0.0159  11.71   546573.15  5261974.24 209.27   0.00   0.00   0.00  1476.3 00000  1372936016.60  242   1   0.00  74.05
 0   546582.88  5261969.00    -3.23   -20.00  0.0159  11.76   546573.15  5261974.24 209.27   0.00   0.00   0.00  1476.3 00000  1372936016.60  243   1   0.00  74.05
 0   546582.94  5261969.00    -3.24   -17.00  0.0160  11.81   546573.15  5261974.24 209.27   0.00   0.00   0.00  1476.3 00000  1372936016.60  244   1   0.00  74.05
 0   546582.94  5261969.00    -3.26   -18.00  0.0161  11.85   546573.15  5261974.24 209.27   0.00   0.00   0.00  1476.3 00000  1372936016.60  245   1   0.00  74.05
 0   546583.00  5261969.00    -3.27    -9.00  0.0161  11.90   546573.15  5261974.24 209.27   0.00   0.00   0.00  1476.3 00000  1372936016.60  246   1   0.00  74.05
 0   546583.06  5261969.00    -3.28   -18.00  0.0162  11.95   546573.15  5261974.24 209.27   0.00   0.00   0.00  1476.3 00000  1372936016.60  247   1   0.00  74.05
 0   546583.06  5261969.00    -3.30   -28.00  0.0163  12.00   546573.15  5261974.24 209.27   0.00   0.00   0.00  1476.3 00000  1372936016.60  248   1   0.00  74.05
 0   546583.13  5261969.00    -3.31   -17.00  0.0163  12.05   546573.15  5261974.24 209.27   0.00   0.00   0.00  1476.3 00000  1372936016.60  249   1   0.00  74.05
 0   546583.19  5261969.00    -3.32   -12.00  0.0164  12.09   546573.15  5261974.24 209.27   0.00   0.00   0.00  1476.3 00000  1372936016.60  250   1   0.00  74.05
 0   546583.19  5261968.50    -3.34    -8.00  0.0165  12.14   546573.15  5261974.24 209.27   0.00   0.00   0.00  1476.3 00000  1372936016.60  251   1   0.00  74.05
 0   546583.25  5261968.50    -3.35   -14.00  0.0165  12.19   546573.15  5261974.24 209.27   0.00   0.00   0.00  1476.3 00000  1372936016.60  252   1   0.00  74.05
 0   546583.31  5261968.50    -3.36   -11.00  0.0166  12.24   546573.15  5261974.24 209.27   0.00   0.00   0.00  1476.3 00000  1372936016.60  253   1   0.00  74.05
 0   546583.31  5261968.50    -3.38   -17.00  0.0166  12.29   546573.15  5261974.24 209.27   0.00   0.00   0.00  1476.3 00000  1372936016.60  254   1   0.00  74.05
 0   546583.38  5261968.50    -3.39    -8.00  0.0167  12.34   546573.15  5261974.24 209.27   0.00   0.00   0.00  1476.3 00000  1372936016.60  255   1   0.00  74.05
 0   546583.44  5261968.50    -3.40    -8.00  0.0168  12.38   546573.15  5261974.24 209.27   0.00   0.00   0.00  1476.3 00000  1372936016.60  256   1   0.00  74.05
 0   546583.44  5261968.50    -3.42   -25.00  0.0168  12.43   546573.15  5261974.24 209.27   0.00   0.00   0.00  1476.3 00000  1372936016.60  257   1   0.00  74.05
 0   546583.50  5261968.50    -3.43   -33.00  0.0169  12.48   546573.15  5261974.24 209.27   0.00   0.00   0.00  1476.3 00000  1372936016.60  258   1   0.00  74.05
 0   546583.50  5261968.50    -3.44   -16.00  0.0170  12.53   546573.15  5261974.24 209.27   0.00   0.00   0.00  1476.3 00000  1372936016.60  259   1   0.00  74.05
 0   546583.56  5261968.50    -3.46   -29.00  0.0170  12.58   546573.15  5261974.24 209.27   0.00   0.00   0.00  1476.3 00000  1372936016.60  260   1   0.00  74.05
 0   546583.63  5261968.50    -3.47   -18.00  0.0171  12.62   546573.15  5261974.24 209.27   0.00   0.00   0.00  1476.3 00000  1372936016.60  261   1   0.00  74.05
 0   546583.63  5261968.50    -3.48   -28.00  0.0172  12.67   546573.15  5261974.24 209.27   0.00   0.00   0.00  1476.3 00000  1372936016.60  262   1   0.00  74.05
 0   546583.69  5261968.50    -3.50    -6.00  0.0172  12.72   546573.15  5261974.24 209.27   0.00   0.00   0.00  1476.3 00000  1372936016.60  263   1   0.00  74.05